Scottown, Ohio
Current Conditions -  °F | °C
As of 6:51 AM on Monday 20 Oct 2014 (Local Time) from KHTS Reporting Station
Haze Haze  
Wind Chill: 37°   Ceiling: Unl
Heat Index: 37°   Visibility: 5mi
Dew Point: 37°   Wind: 3mph
Humidity: 100%   Direction: 120°ESE
Pressure: 30.05"   Gusts: NA
Location:  38.55°N, 82.39°W
Report Text: KHTS 201051Z 12003KT 5SM BR CLR 03/03 A3005 RMK AO2 SLP177 T00280028
Loading
Personal Weather Stations






























Interactive Weather Map
Tropical Storm Tracking
New forecast layout! Learn more

10-Day Weather Forecast

Advertisements
Track Severe Weather on mobile